createdAt,value
2022-12-05T00:02:13.661Z,54.50
2022-12-05T00:04:42.314Z,53.30
2022-12-05T00:07:12.266Z,50.53
2022-12-05T00:09:40.625Z,55.23
2022-12-05T00:12:09.106Z,58.87
2022-12-05T00:14:37.503Z,56.90
2022-12-05T00:17:07.786Z,49.60
2022-12-05T00:19:36.291Z,57.80
2022-12-05T00:22:04.733Z,47.67
2022-12-05T00:24:34.564Z,55.63
2022-12-05T00:27:02.859Z,58.03
2022-12-05T00:29:31.177Z,50.67
2022-12-05T00:31:59.678Z,53.60
2022-12-05T00:34:31.041Z,62.10
2022-12-05T00:36:59.413Z,48.63
2022-12-05T00:39:28.151Z,48.83
2022-12-05T00:41:57.976Z,56.07
2022-12-05T00:44:26.356Z,56.40
2022-12-05T00:46:54.744Z,55.00
2022-12-05T00:49:23.090Z,52.00
2022-12-05T00:51:52.520Z,49.27
2022-12-05T00:54:21.317Z,54.77
2022-12-05T00:56:52.357Z,50.37
2022-12-05T00:59:22.286Z,51.77
2022-12-05T01:01:52.741Z,54.47
2022-12-05T01:04:24.175Z,49.53
2022-12-05T01:06:56.257Z,49.77
2022-12-05T01:09:26.200Z,53.37
2022-12-05T01:11:54.945Z,52.33
2022-12-05T01:14:26.400Z,55.50
2022-12-05T01:16:57.825Z,54.70
2022-12-05T01:19:28.764Z,50.77
2022-12-05T01:21:57.919Z,57.53
2022-12-05T01:24:27.821Z,50.03
2022-12-05T01:26:56.572Z,51.27
2022-12-05T01:29:27.835Z,53.07
2022-12-05T01:31:56.840Z,51.07
2022-12-05T01:34:25.786Z,50.93
2022-12-05T01:36:54.642Z,54.70
2022-12-05T01:39:23.893Z,49.83
2022-12-05T01:41:52.612Z,55.47
2022-12-05T01:45:06.920Z,55.50
2022-12-05T01:47:38.388Z,55.17
2022-12-05T01:50:08.854Z,54.13
2022-12-05T01:52:40.058Z,48.20
2022-12-05T01:55:12.055Z,50.80
2022-12-05T01:57:41.537Z,50.50
2022-12-05T02:00:14.787Z,62.80
2022-12-05T02:02:45.633Z,55.93
2022-12-05T02:05:19.169Z,53.77
2022-12-05T02:07:48.879Z,49.03
2022-12-05T02:10:17.649Z,55.73
2022-12-05T02:12:46.619Z,59.63
2022-12-05T02:15:36.846Z,52.80
2022-12-05T02:18:20.013Z,62.27
2022-12-05T02:21:05.754Z,55.07
2022-12-05T02:24:01.041Z,52.33
2022-12-05T02:27:01.661Z,50.73
2022-12-05T02:30:03.642Z,52.23
2022-12-05T02:32:53.668Z,58.97
2022-12-05T02:35:32.131Z,55.30
2022-12-05T02:38:14.357Z,57.30
2022-12-05T02:40:47.980Z,53.00
2022-12-05T02:43:21.399Z,55.33
2022-12-05T02:45:57.559Z,57.10
2022-12-05T02:48:29.378Z,58.87
2022-12-05T02:51:00.752Z,53.00
2022-12-05T02:53:31.910Z,53.60
2022-12-05T02:56:02.413Z,53.10
2022-12-05T02:58:35.376Z,56.03
2022-12-05T03:01:07.156Z,54.17
2022-12-05T03:03:37.037Z,54.93
2022-12-05T03:06:10.758Z,52.53
2022-12-05T03:08:43.029Z,56.13
2022-12-05T03:11:12.080Z,54.00
2022-12-05T03:13:44.955Z,63.97
2022-12-05T03:16:19.315Z,57.90
2022-12-05T03:18:52.788Z,55.80
2022-12-05T03:21:27.275Z,61.30
2022-12-05T03:24:02.234Z,55.77
2022-12-05T03:26:43.420Z,58.53
2022-12-05T03:29:24.175Z,54.43
2022-12-05T03:32:04.535Z,52.83
2022-12-05T03:34:43.895Z,50.97
2022-12-05T03:37:16.295Z,61.37
2022-12-05T03:39:49.959Z,62.23
2022-12-05T03:42:26.029Z,58.10
2022-12-05T03:44:59.095Z,58.20
2022-12-05T03:47:40.018Z,55.53
2022-12-05T03:50:13.709Z,57.40
2022-12-05T03:53:18.061Z,60.97
2022-12-05T03:55:39.803Z,62.37
2022-12-05T03:58:12.628Z,61.17
2022-12-05T04:00:46.494Z,59.73
2022-12-05T04:03:22.122Z,62.47
2022-12-05T04:05:54.259Z,52.27
2022-12-05T04:08:26.298Z,61.13
2022-12-05T04:10:58.775Z,55.37
2022-12-05T04:13:33.834Z,61.97
2022-12-05T04:16:24.732Z,59.47
2022-12-05T04:18:59.996Z,56.00
2022-12-05T04:21:41.205Z,63.33
2022-12-05T04:24:32.239Z,55.23
2022-12-05T04:27:10.776Z,54.53
2022-12-05T04:29:46.611Z,61.03
2022-12-05T04:32:15.730Z,60.33
2022-12-05T04:34:55.560Z,51.93
2022-12-05T04:37:26.366Z,57.47
2022-12-05T04:40:00.107Z,58.80
2022-12-05T04:42:33.757Z,58.70
2022-12-05T04:45:06.766Z,57.73
2022-12-05T04:47:42.175Z,57.63
2022-12-05T04:50:14.908Z,58.60
2022-12-05T04:52:47.070Z,53.70
2022-12-05T04:55:19.315Z,56.43
2022-12-05T04:57:54.525Z,59.53
2022-12-05T05:00:23.110Z,54.70
2022-12-05T05:02:55.940Z,56.67
2022-12-05T05:05:27.806Z,60.10
2022-12-05T05:07:56.841Z,62.77
2022-12-05T05:10:33.448Z,59.83
2022-12-05T05:13:02.032Z,60.30
2022-12-05T05:15:30.408Z,63.67
2022-12-05T05:17:58.769Z,61.43
2022-12-05T05:20:28.498Z,57.93
2022-12-05T05:22:58.133Z,64.20
2022-12-05T05:25:26.844Z,61.40
2022-12-05T05:27:57.544Z,64.83
2022-12-05T05:30:26.783Z,55.27
2022-12-05T05:32:55.429Z,62.20
2022-12-05T05:35:24.011Z,64.10
2022-12-05T05:37:54.154Z,59.90
2022-12-05T05:40:22.560Z,58.27
2022-12-05T05:42:52.033Z,77.40
2022-12-05T05:45:20.473Z,62.40
2022-12-05T05:47:51.049Z,58.13
2022-12-05T05:50:21.811Z,62.83
2022-12-05T05:52:50.544Z,64.57
2022-12-05T05:55:20.524Z,74.33
2022-12-05T05:57:49.210Z,65.57
2022-12-05T06:00:18.294Z,60.77
2022-12-05T06:02:46.877Z,57.83
2022-12-05T06:05:15.304Z,67.70
2022-12-05T06:07:43.842Z,61.97
2022-12-05T06:10:12.562Z,69.40
2022-12-05T06:12:42.247Z,59.30
2022-12-05T06:15:11.866Z,65.20
2022-12-05T06:17:40.246Z,64.60
2022-12-05T06:20:10.393Z,61.73
2022-12-05T06:22:38.977Z,60.43
2022-12-05T06:25:08.980Z,58.87
2022-12-05T06:27:38.048Z,60.37
2022-12-05T06:30:09.498Z,60.07
2022-12-05T06:32:38.100Z,52.90
2022-12-05T06:35:15.313Z,59.80
2022-12-05T06:37:44.693Z,61.80
2022-12-05T06:40:14.205Z,58.23
2022-12-05T06:42:42.901Z,62.07
2022-12-05T06:45:13.625Z,56.93
2022-12-05T06:47:42.015Z,62.43
2022-12-05T06:50:11.661Z,62.73
2022-12-05T06:52:40.166Z,60.47
2022-12-05T06:55:09.026Z,59.23
2022-12-05T06:57:37.523Z,59.90
2022-12-05T07:00:21.335Z,56.97
2022-12-05T07:02:53.350Z,62.67
2022-12-05T07:05:21.728Z,59.13
2022-12-05T07:07:50.252Z,52.13
2022-12-05T07:10:18.931Z,51.27
2022-12-05T07:12:48.191Z,60.87
2022-12-05T07:15:17.986Z,59.97
2022-12-05T07:17:46.380Z,57.73
2022-12-05T07:20:17.946Z,61.10
2022-12-05T07:22:47.218Z,58.87
2022-12-05T07:25:15.797Z,59.70
2022-12-05T07:27:44.239Z,58.33
2022-12-05T07:30:13.418Z,56.50
2022-12-05T07:32:41.979Z,56.27
2022-12-05T07:35:10.644Z,56.83
2022-12-05T07:37:40.878Z,58.30
2022-12-05T07:40:11.161Z,49.03
2022-12-05T07:42:40.825Z,55.23
2022-12-05T07:45:10.521Z,59.37
2022-12-05T07:47:39.387Z,60.53
2022-12-05T07:50:09.424Z,51.73
2022-12-05T07:52:37.856Z,47.33
2022-12-05T07:55:09.158Z,48.77
2022-12-05T07:57:37.645Z,53.17
2022-12-05T08:00:07.440Z,51.70
2022-12-05T08:02:41.188Z,52.80
2022-12-05T08:05:10.967Z,52.13
2022-12-05T08:07:39.742Z,47.50
2022-12-05T08:10:10.610Z,58.30
2022-12-05T08:12:42.353Z,50.33
2022-12-05T08:15:14.597Z,47.23
2022-12-05T08:17:44.575Z,48.10
2022-12-05T08:20:14.019Z,52.70
2022-12-05T08:22:42.391Z,52.17
2022-12-05T08:25:12.448Z,47.40
2022-12-05T08:27:41.091Z,48.13
2022-12-05T08:30:10.448Z,56.40
2022-12-05T08:32:39.026Z,48.13
2022-12-05T08:35:08.023Z,51.83
2022-12-05T08:37:36.705Z,51.23
2022-12-05T08:40:06.427Z,51.63
2022-12-05T08:42:36.448Z,48.33
2022-12-05T08:45:05.251Z,50.53
2022-12-05T08:47:33.601Z,51.87
2022-12-05T08:50:02.077Z,46.47
2022-12-05T08:52:30.737Z,47.30
2022-12-05T08:54:59.865Z,40.17
2022-12-05T08:57:28.775Z,41.33
2022-12-05T08:59:58.860Z,47.53
2022-12-05T09:02:27.364Z,39.90
2022-12-05T09:05:01.713Z,37.63
2022-12-05T09:07:37.682Z,39.67
2022-12-05T09:10:10.856Z,38.37
2022-12-05T09:12:41.679Z,40.80
2022-12-05T09:15:13.931Z,39.27
2022-12-05T09:17:42.507Z,38.27
2022-12-05T09:20:13.924Z,34.50
2022-12-05T09:22:43.142Z,32.93
2022-12-05T09:25:12.007Z,30.43
2022-12-05T09:27:40.809Z,29.23
2022-12-05T09:30:12.010Z,28.13
2022-12-05T09:32:40.816Z,27.10
2022-12-05T09:35:10.546Z,31.27
2022-12-05T09:37:40.953Z,31.20
2022-12-05T09:40:18.018Z,30.67
2022-12-05T09:43:00.040Z,30.90
2022-12-05T09:45:38.885Z,37.63
2022-12-05T09:48:12.760Z,31.00
2022-12-05T09:50:46.132Z,37.50
2022-12-05T09:53:27.404Z,35.27
2022-12-05T09:56:02.451Z,34.53
2022-12-05T09:58:41.372Z,30.93
2022-12-05T10:01:34.508Z,30.83
2022-12-05T10:04:21.476Z,30.90
2022-12-05T10:07:00.019Z,24.63
2022-12-05T10:09:55.788Z,31.97
2022-12-05T10:12:44.011Z,32.43
2022-12-05T10:15:16.421Z,32.27
2022-12-05T10:17:52.822Z,27.20
2022-12-05T10:20:28.860Z,31.60
2022-12-05T10:23:02.527Z,31.33
2022-12-05T10:25:33.761Z,31.27
2022-12-05T10:28:05.563Z,28.37
2022-12-05T10:30:37.066Z,30.27
2022-12-05T10:33:15.916Z,23.43
2022-12-05T10:35:44.954Z,22.63
2022-12-05T10:38:18.267Z,28.80
2022-12-05T10:40:52.791Z,29.70
2022-12-05T10:43:26.465Z,26.13
2022-12-05T10:45:55.978Z,34.27
2022-12-05T10:48:26.944Z,31.90
2022-12-05T10:50:57.857Z,28.13
2022-12-05T10:53:29.255Z,28.57
2022-12-05T10:58:58.026Z,28.30
2022-12-05T11:01:29.196Z,29.90
2022-12-05T11:04:02.553Z,27.30
2022-12-05T11:06:33.136Z,28.63
2022-12-05T11:09:16.477Z,29.40
2022-12-05T11:11:58.460Z,26.50
2022-12-05T11:14:28.772Z,26.53
2022-12-05T11:17:00.278Z,30.27
2022-12-05T11:19:34.686Z,30.13
2022-12-05T11:22:33.577Z,27.57
2022-12-05T11:25:03.226Z,26.07
2022-12-05T11:27:34.202Z,25.53
2022-12-05T11:30:05.722Z,26.00
2022-12-05T11:32:36.558Z,23.57
2022-12-05T11:35:30.088Z,25.87
2022-12-05T11:38:04.351Z,28.20
2022-12-05T11:40:57.947Z,25.77
2022-12-05T11:43:50.110Z,27.37
2022-12-05T11:46:43.102Z,25.27
2022-12-05T11:49:43.835Z,24.27
2022-12-05T11:52:32.052Z,26.27
2022-12-05T11:55:17.124Z,25.30
2022-12-05T11:58:20.510Z,25.57
2022-12-05T12:01:06.068Z,19.90
2022-12-05T12:04:19.732Z,21.40
2022-12-05T12:07:08.123Z,23.83
2022-12-05T12:10:37.311Z,20.60
2022-12-05T12:13:58.344Z,22.73
2022-12-05T12:17:13.185Z,24.57
2022-12-05T12:20:26.541Z,24.90
2022-12-05T12:23:28.322Z,21.90
2022-12-05T12:26:14.285Z,21.40
2022-12-05T12:28:57.897Z,23.93
2022-12-05T12:31:53.206Z,22.00
2022-12-05T12:34:46.857Z,54.57
2022-12-05T12:37:27.074Z,27.70
2022-12-05T12:40:06.887Z,29.27
2022-12-05T12:42:47.562Z,20.37
2022-12-05T12:45:47.183Z,20.93
2022-12-05T12:48:34.836Z,20.83
2022-12-05T12:51:05.596Z,29.33
2022-12-05T12:54:01.325Z,20.63
2022-12-05T12:56:41.785Z,22.47
2022-12-05T12:59:32.900Z,22.00
2022-12-05T13:02:13.686Z,20.13
2022-12-05T13:04:51.628Z,20.50
2022-12-05T13:07:29.586Z,16.57
2022-12-05T13:10:05.168Z,16.70
2022-12-05T13:12:47.654Z,18.83
2022-12-05T13:15:35.004Z,17.57
2022-12-05T13:18:07.042Z,18.27
2022-12-05T13:20:38.346Z,18.60
2022-12-05T13:23:09.497Z,18.63
2022-12-05T13:25:40.984Z,20.47
2022-12-05T13:28:28.060Z,21.70
2022-12-05T13:31:01.786Z,18.97
2022-12-05T13:33:35.214Z,18.47
2022-12-05T13:36:28.589Z,19.40
2022-12-05T13:39:16.865Z,20.00
2022-12-05T13:42:06.390Z,17.73
2022-12-05T13:44:40.316Z,19.03
2022-12-05T13:47:26.554Z,18.40
2022-12-05T13:50:02.851Z,20.63
2022-12-05T13:52:40.540Z,15.03
2022-12-05T13:55:21.798Z,17.60
2022-12-05T13:57:55.737Z,19.80
2022-12-05T14:00:38.483Z,18.40
2022-12-05T14:03:18.446Z,18.60
2022-12-05T14:05:49.563Z,17.30
2022-12-05T14:08:55.178Z,19.20
2022-12-05T14:11:33.377Z,16.67
2022-12-05T14:14:13.160Z,19.67
2022-12-05T14:16:52.087Z,17.77
2022-12-05T14:20:07.919Z,18.00
2022-12-05T14:23:14.359Z,19.70
2022-12-05T14:26:08.785Z,16.47
2022-12-05T14:29:02.013Z,20.03
2022-12-05T14:31:59.643Z,19.87
2022-12-05T14:34:36.556Z,18.17
2022-12-05T14:37:25.424Z,21.80
2022-12-05T14:40:01.011Z,19.60
2022-12-05T14:42:39.118Z,19.10
2022-12-05T14:45:28.708Z,18.07
2022-12-05T14:47:59.859Z,22.13
2022-12-05T14:50:42.056Z,21.37
2022-12-05T14:53:40.813Z,19.90
2022-12-05T14:56:16.495Z,21.90
2022-12-05T14:58:50.526Z,18.57
2022-12-05T15:01:23.555Z,19.40
2022-12-05T15:04:09.683Z,18.23
2022-12-05T15:06:48.161Z,20.97
2022-12-05T15:09:50.674Z,19.43
2022-12-05T15:12:26.465Z,18.87
2022-12-05T15:15:10.803Z,16.30
2022-12-05T15:17:52.700Z,16.67
2022-12-05T15:24:49.010Z,14.03
2022-12-05T15:28:28.889Z,17.77
2022-12-05T15:35:22.770Z,16.10
2022-12-05T15:39:11.977Z,18.97
2022-12-05T15:42:18.817Z,19.07
2022-12-05T15:44:53.836Z,19.77
2022-12-05T15:47:27.564Z,20.50
2022-12-05T15:49:59.403Z,20.73
2022-12-05T15:52:39.871Z,20.77
2022-12-05T15:55:20.303Z,21.50
2022-12-05T15:57:56.617Z,20.77
2022-12-05T16:00:30.676Z,21.23
2022-12-05T16:03:05.426Z,18.97
2022-12-05T16:05:39.418Z,20.93
2022-12-05T16:08:09.589Z,23.67
2022-12-05T16:10:38.605Z,20.97
2022-12-05T16:13:13.444Z,23.23
2022-12-05T16:15:53.044Z,20.67
2022-12-05T16:18:28.799Z,24.00
2022-12-05T16:20:57.919Z,21.67
2022-12-05T16:23:30.287Z,19.90
2022-12-05T16:26:21.095Z,18.33
2022-12-05T16:28:59.400Z,18.53
2022-12-05T16:31:29.937Z,21.00
2022-12-05T16:34:07.685Z,20.00
2022-12-05T16:36:36.861Z,21.30
2022-12-05T16:39:07.773Z,22.30
2022-12-05T16:41:38.430Z,20.43
2022-12-05T16:44:30.198Z,22.33
2022-12-05T16:47:00.492Z,19.97
2022-12-05T16:49:45.852Z,23.63
2022-12-05T16:52:17.859Z,20.90
2022-12-05T16:54:51.359Z,23.03
2022-12-05T16:57:21.269Z,20.90
2022-12-05T16:59:51.926Z,22.87
2022-12-05T17:02:24.066Z,23.30
2022-12-05T17:04:54.600Z,20.43
2022-12-05T17:07:23.155Z,21.47
2022-12-05T17:09:51.661Z,22.13
2022-12-05T17:12:24.557Z,21.37
2022-12-05T17:14:53.173Z,24.20
2022-12-05T17:17:23.066Z,24.93
2022-12-05T17:19:51.731Z,21.27
2022-12-05T17:22:23.079Z,24.47
2022-12-05T17:24:51.576Z,24.70
2022-12-05T17:27:20.399Z,25.83
2022-12-05T17:29:48.959Z,35.93
2022-12-05T17:32:19.241Z,32.40
2022-12-05T17:34:52.067Z,35.07
2022-12-05T17:37:20.527Z,27.90
2022-12-05T17:39:49.400Z,32.27
2022-12-05T17:42:19.626Z,47.53
2022-12-05T17:44:48.509Z,32.63
2022-12-05T17:47:17.572Z,35.63
2022-12-05T17:49:46.155Z,27.10
2022-12-05T17:52:23.596Z,31.87
2022-12-05T17:54:52.357Z,31.50
2022-12-05T17:57:21.042Z,29.07
2022-12-05T17:59:49.850Z,31.00
2022-12-05T18:02:20.257Z,40.03
2022-12-05T18:04:49.352Z,43.70
2022-12-05T18:07:19.812Z,50.57
2022-12-05T18:09:48.770Z,52.77
2022-12-05T18:12:17.553Z,60.07
2022-12-05T18:14:46.073Z,61.23
2022-12-05T18:17:14.932Z,49.47
2022-12-05T18:19:43.541Z,41.37
2022-12-05T18:22:13.754Z,35.93
2022-12-05T18:24:46.171Z,42.13
2022-12-05T18:27:15.297Z,45.60
2022-12-05T18:29:44.275Z,49.63
2022-12-05T18:32:12.771Z,37.23
2022-12-05T18:34:41.672Z,42.50
2022-12-05T18:37:10.626Z,43.60
2022-12-05T18:39:39.304Z,54.03
2022-12-05T18:42:15.113Z,44.13
2022-12-05T18:44:44.390Z,28.97
2022-12-05T18:47:12.886Z,27.80
2022-12-05T18:49:44.063Z,30.93
2022-12-05T18:52:12.737Z,31.90
2022-12-05T18:54:41.282Z,31.03
2022-12-05T18:57:11.400Z,28.47
2022-12-05T18:59:40.498Z,31.17
2022-12-05T19:02:11.579Z,29.73
2022-12-05T19:04:40.059Z,32.97
2022-12-05T19:07:08.422Z,35.00
2022-12-05T19:09:37.202Z,32.57
2022-12-05T19:12:05.985Z,33.77
2022-12-05T19:14:37.938Z,34.50
2022-12-05T19:17:06.858Z,38.80
2022-12-05T19:19:35.366Z,34.70
2022-12-05T19:22:03.891Z,36.50
2022-12-05T19:24:32.484Z,34.57
2022-12-05T19:27:01.288Z,35.70
2022-12-05T19:29:30.067Z,39.50
2022-12-05T19:32:00.158Z,36.93
2022-12-05T19:34:28.824Z,35.70
2022-12-05T19:36:57.583Z,36.20
2022-12-05T19:39:27.210Z,32.93
2022-12-05T19:41:57.695Z,32.77
2022-12-05T19:44:27.112Z,38.03
2022-12-05T19:46:55.917Z,35.10
2022-12-05T19:49:28.808Z,35.50
2022-12-05T19:51:57.492Z,42.70
2022-12-05T19:54:26.114Z,37.67
2022-12-05T19:56:58.437Z,40.67
2022-12-05T19:59:29.308Z,38.90
2022-12-05T20:01:58.079Z,59.90
2022-12-05T20:04:26.800Z,78.90
2022-12-05T20:06:57.135Z,62.73
2022-12-05T20:09:26.555Z,50.87
2022-12-05T20:11:56.170Z,65.40
2022-12-05T20:14:26.103Z,40.60
2022-12-05T20:16:55.934Z,50.60
2022-12-05T20:19:25.346Z,46.33
2022-12-05T20:21:55.566Z,45.77
2022-12-05T20:24:25.680Z,43.97
2022-12-05T20:26:54.319Z,51.13
2022-12-05T20:29:22.858Z,43.60
2022-12-05T20:31:56.773Z,42.43
2022-12-05T20:34:25.807Z,42.63
2022-12-05T20:36:54.906Z,41.30
2022-12-05T20:39:27.447Z,43.90
2022-12-05T20:41:56.101Z,44.47
2022-12-05T20:44:25.240Z,44.93
2022-12-05T20:46:54.370Z,41.43
2022-12-05T20:49:23.502Z,43.03
2022-12-05T20:51:52.082Z,40.67
2022-12-05T20:54:20.844Z,41.13
2022-12-05T20:56:51.125Z,44.87
2022-12-05T20:59:19.645Z,51.00
2022-12-05T21:01:48.467Z,40.73
2022-12-05T21:04:17.519Z,47.80
2022-12-05T21:06:46.776Z,49.33
2022-12-05T21:09:26.831Z,49.90
2022-12-05T21:11:57.648Z,47.70
2022-12-05T21:14:26.168Z,43.90
2022-12-05T21:16:54.744Z,48.57
2022-12-05T21:19:23.455Z,47.87
2022-12-05T21:21:53.954Z,47.47
2022-12-05T21:24:22.732Z,47.73
2022-12-05T21:26:52.635Z,53.10
2022-12-05T21:29:22.637Z,54.97
2022-12-05T21:31:51.849Z,48.13
2022-12-05T21:34:21.812Z,50.33
2022-12-05T21:36:50.602Z,53.33
2022-12-05T21:39:19.137Z,58.03
2022-12-05T21:41:47.732Z,54.30
2022-12-05T21:44:16.755Z,55.53
2022-12-05T21:46:46.910Z,59.93
2022-12-05T21:49:15.772Z,55.07
2022-12-05T21:51:44.350Z,56.13
2022-12-05T21:54:13.033Z,53.93
2022-12-05T21:56:42.371Z,52.53
2022-12-05T21:59:11.108Z,53.37
2022-12-05T22:01:40.432Z,53.47
2022-12-05T22:04:10.735Z,62.03
2022-12-05T22:06:39.342Z,59.43
2022-12-05T22:09:07.949Z,60.47
2022-12-05T22:11:36.750Z,62.30
2022-12-05T22:14:05.920Z,60.07
2022-12-05T22:16:34.956Z,57.80
2022-12-05T22:19:04.256Z,66.60
2022-12-05T22:21:34.943Z,69.07
2022-12-05T22:24:03.712Z,68.43
2022-12-05T22:26:32.333Z,59.53
2022-12-05T22:29:01.055Z,62.43
2022-12-05T22:31:30.142Z,60.63
2022-12-05T22:33:58.853Z,65.90
2022-12-05T22:36:27.349Z,63.53
2022-12-05T22:38:57.295Z,54.37
2022-12-05T22:41:27.727Z,71.37
2022-12-05T22:43:57.806Z,69.57
2022-12-05T22:46:28.260Z,65.20
2022-12-05T22:48:58.540Z,74.97
2022-12-05T22:51:28.153Z,69.53
2022-12-05T22:53:58.308Z,69.67
2022-12-05T22:56:29.112Z,72.70
2022-12-05T22:59:00.033Z,64.80
2022-12-05T23:01:31.144Z,66.77
2022-12-05T23:04:01.667Z,74.60
2022-12-05T23:06:34.267Z,70.87
2022-12-05T23:09:07.698Z,68.27
2022-12-05T23:11:36.941Z,74.57
2022-12-05T23:14:06.128Z,72.30
2022-12-05T23:16:36.153Z,71.07
2022-12-05T23:19:08.549Z,71.77
2022-12-05T23:21:39.465Z,73.63
2022-12-05T23:24:12.002Z,89.43
2022-12-05T23:26:42.689Z,84.27
2022-12-05T23:29:13.851Z,87.27
2022-12-05T23:31:43.618Z,86.10
2022-12-05T23:34:13.500Z,80.20
2022-12-05T23:36:42.438Z,89.27
2022-12-05T23:39:13.380Z,80.40
2022-12-05T23:41:42.351Z,76.53
2022-12-05T23:44:11.381Z,81.53
2022-12-05T23:46:40.303Z,74.70
2022-12-05T23:49:09.265Z,72.67
2022-12-05T23:51:40.367Z,90.33
2022-12-05T23:54:11.374Z,94.33
2022-12-05T23:56:41.724Z,109.97
2022-12-05T23:59:11.151Z,89.43
